sensor_id;sensor_type;location;lat;lon;timestamp;pressure;altitude;pressure_sealevel;temperature;humidity
23131;BME280;11734;51.046;13.778;2022-08-16T00:01:16;4324.88;;;19.70;100.00
23131;BME280;11734;51.046;13.778;2022-08-16T00:03:45;4324.59;;;19.67;100.00
23131;BME280;11734;51.046;13.778;2022-08-16T00:06:12;3315.06;;;19.59;100.00
23131;BME280;11734;51.046;13.778;2022-08-16T00:08:41;2978.19;;;19.50;100.00
23131;BME280;11734;51.046;13.778;2022-08-16T00:11:12;2305.78;;;19.46;100.00
23131;BME280;11734;51.046;13.778;2022-08-16T00:13:44;1633.59;;;19.43;100.00
23131;BME280;11734;51.046;13.778;2022-08-16T00:16:27;961.84;;;19.44;100.00
23131;BME280;11734;51.046;13.778;2022-08-16T00:19:18;-381.50;;;19.41;100.00
23131;BME280;11734;51.046;13.778;2022-08-16T00:21:49;-1388.56;;;19.41;100.00
23131;BME280;11734;51.046;13.778;2022-08-16T00:24:22;-1724.16;;;19.42;100.00
23131;BME280;11734;51.046;13.778;2022-08-16T00:27:01;-2059.72;;;19.39;100.00
23131;BME280;11734;51.046;13.778;2022-08-16T00:29:30;-2059.72;;;19.38;100.00
23131;BME280;11734;51.046;13.778;2022-08-16T00:31:59;-2395.22;;;19.35;100.00
23131;BME280;11734;51.046;13.778;2022-08-16T00:34:33;-2395.19;;;19.34;100.00
23131;BME280;11734;51.046;13.778;2022-08-16T00:37:24;-2730.53;;;19.25;100.00
23131;BME280;11734;51.046;13.778;2022-08-16T00:40:20;-2395.06;;;19.21;100.00
23131;BME280;11734;51.046;13.778;2022-08-16T00:43:15;-2395.03;;;19.18;100.00
23131;BME280;11734;51.046;13.778;2022-08-16T00:45:52;-2059.59;;;19.17;100.00
23131;BME280;11734;51.046;13.778;2022-08-16T00:48:29;-1724.16;;;19.20;100.00
23131;BME280;11734;51.046;13.778;2022-08-16T00:51:12;-1053.06;;;19.26;100.00
23131;BME280;11734;51.046;13.778;2022-08-16T00:53:44;-381.72;;;19.31;100.00
23131;BME280;11734;51.046;13.778;2022-08-16T00:56:15;289.56;;;19.26;100.00
23131;BME280;11734;51.046;13.778;2022-08-16T00:59:06;624.88;;;19.15;100.00
23131;BME280;11734;51.046;13.778;2022-08-16T01:01:34;289.06;;;19.10;100.00
23131;BME280;11734;51.046;13.778;2022-08-16T01:04:03;-46.75;;;19.03;100.00
23131;BME280;11734;51.046;13.778;2022-08-16T01:06:32;-46.69;;;19.05;100.00
23131;BME280;11734;51.046;13.778;2022-08-16T01:09:21;-46.66;;;19.06;100.00
23131;BME280;11734;51.046;13.778;2022-08-16T01:12:01;-46.81;;;19.00;100.00
23131;BME280;11734;51.046;13.778;2022-08-16T01:14:46;-46.94;;;18.95;100.00
23131;BME280;11734;51.046;13.778;2022-08-16T01:17:20;-718.09;;;18.84;100.00
23131;BME280;11734;51.046;13.778;2022-08-16T01:19:56;-1053.47;;;18.84;100.00
23131;BME280;11734;51.046;13.778;2022-08-16T01:25:21;-3735.03;;;18.76;100.00
23131;BME280;11734;51.046;13.778;2022-08-16T01:28:03;-4404.94;;;18.74;100.00
23131;BME280;11734;51.046;13.778;2022-08-16T01:30:37;-4739.59;;;18.68;100.00
23131;BME280;11734;51.046;13.778;2022-08-16T01:33:16;-4739.63;;;18.69;100.00
23131;BME280;11734;51.046;13.778;2022-08-16T01:35:53;-4739.84;;;18.73;100.00
23131;BME280;11734;51.046;13.778;2022-08-16T01:41:01;-4739.88;;;18.74;100.00
23131;BME280;11734;51.046;13.778;2022-08-16T01:43:32;-4404.81;;;18.71;100.00
23131;BME280;11734;51.046;13.778;2022-08-16T01:46:03;-4739.56;;;18.67;100.00
23131;BME280;11734;51.046;13.778;2022-08-16T01:48:58;-5408.50;;;18.54;100.00
23131;BME280;11734;51.046;13.778;2022-08-16T01:51:27;-6746.97;;;18.51;100.00
23131;BME280;11734;51.046;13.778;2022-08-16T01:53:56;-7750.72;;;18.52;100.00
23131;BME280;11734;51.046;13.778;2022-08-16T01:56:29;-8420.00;;;18.55;100.00
23131;BME280;11734;51.046;13.778;2022-08-16T01:59:00;-9088.47;;;18.52;100.00
23131;BME280;11734;51.046;13.778;2022-08-16T02:01:28;-9089.00;;;18.56;100.00
23131;BME280;11734;51.046;13.778;2022-08-16T02:03:59;-9089.19;;;18.58;100.00
23131;BME280;11734;51.046;13.778;2022-08-16T02:06:39;-9423.44;;;18.57;100.00
23131;BME280;11734;51.046;13.778;2022-08-16T02:09:19;-9423.38;;;18.56;100.00
23131;BME280;11734;51.046;13.778;2022-08-16T02:11:55;-9757.13;;;18.52;100.00
23131;BME280;11734;51.046;13.778;2022-08-16T02:14:26;-9756.50;;;18.47;100.00
23131;BME280;11734;51.046;13.778;2022-08-16T02:17:01;-10421.31;;;18.20;100.00
23131;BME280;11734;51.046;13.778;2022-08-16T02:19:33;-10757.91;;;18.38;100.00
23131;BME280;11734;51.046;13.778;2022-08-16T02:22:22;-11759.41;;;18.33;100.00
23131;BME280;11734;51.046;13.778;2022-08-16T02:25:07;-12427.84;;;18.36;100.00
23131;BME280;11734;51.046;13.778;2022-08-16T02:27:37;-12761.78;;;18.36;100.00
23131;BME280;11734;51.046;13.778;2022-08-16T02:30:20;-12761.78;;;18.36;100.00
23131;BME280;11734;51.046;13.778;2022-08-16T02:33:09;-12761.84;;;18.37;100.00
23131;BME280;11734;51.046;13.778;2022-08-16T02:35:38;-12761.59;;;18.35;100.00
23131;BME280;11734;51.046;13.778;2022-08-16T02:38:22;-12426.63;;;18.29;100.00
23131;BME280;11734;51.046;13.778;2022-08-16T02:40:50;-12760.19;;;18.27;100.00
23131;BME280;11734;51.046;13.778;2022-08-16T02:43:25;-12760.63;;;18.30;100.00
23131;BME280;11734;51.046;13.778;2022-08-16T02:45:57;-12759.56;;;18.24;100.00
23131;BME280;11734;51.046;13.778;2022-08-16T02:48:25;-12425.78;;;18.24;100.00
23131;BME280;11734;51.046;13.778;2022-08-16T02:51:00;-12425.69;;;18.24;100.00
23131;BME280;11734;51.046;13.778;2022-08-16T02:53:41;-12425.25;;;18.21;100.00
23131;BME280;11734;51.046;13.778;2022-08-16T02:56:12;-12425.19;;;18.21;100.00
23131;BME280;11734;51.046;13.778;2022-08-16T02:58:48;-12090.88;;;18.18;100.00
23131;BME280;11734;51.046;13.778;2022-08-16T03:01:19;-11756.66;;;18.16;100.00
23131;BME280;11734;51.046;13.778;2022-08-16T03:03:53;-11422.03;;;18.12;100.00
23131;BME280;11734;51.046;13.778;2022-08-16T03:06:41;-10754.22;;;18.12;100.00
23131;BME280;11734;51.046;13.778;2022-08-16T03:09:33;-10419.78;;;18.09;100.00
23131;BME280;11734;51.046;13.778;2022-08-16T03:12:03;-10085.09;;;18.04;100.00
23131;BME280;11734;51.046;13.778;2022-08-16T03:14:32;-10084.69;;;18.01;100.00
23131;BME280;11734;51.046;13.778;2022-08-16T03:17:00;-10417.75;;;17.95;100.00
23131;BME280;11734;51.046;13.778;2022-08-16T03:19:35;-10083.13;;;17.89;100.00
23131;BME280;11734;51.046;13.778;2022-08-16T03:22:21;-9748.13;;;17.81;100.00
23131;BME280;11734;51.046;13.778;2022-08-16T03:25:04;-9747.88;;;17.79;100.00
23131;BME280;11734;51.046;13.778;2022-08-16T03:27:35;-10082.25;;;17.83;100.00
23131;BME280;11734;51.046;13.778;2022-08-16T03:30:24;-10081.50;;;17.77;100.00
23131;BME280;11734;51.046;13.778;2022-08-16T03:32:56;-10414.72;;;17.73;100.00
23131;BME280;11734;51.046;13.778;2022-08-16T03:35:29;-10415.78;;;17.80;100.00
23131;BME280;11734;51.046;13.778;2022-08-16T03:38:07;-10416.13;;;17.83;100.00
23131;BME280;11734;51.046;13.778;2022-08-16T03:40:57;-10082.06;;;17.81;100.00
23131;BME280;11734;51.046;13.778;2022-08-16T03:43:28;-10082.66;;;17.86;100.00
23131;BME280;11734;51.046;13.778;2022-08-16T03:46:18;-10083.34;;;17.91;100.00
23131;BME280;11734;51.046;13.778;2022-08-16T03:49:09;-9749.75;;;17.94;100.00
23131;BME280;11734;51.046;13.778;2022-08-16T03:51:42;-9081.81;;;17.95;100.00
23131;BME280;11734;51.046;13.778;2022-08-16T03:54:17;-8747.41;;;17.92;100.00
23131;BME280;11734;51.046;13.778;2022-08-16T03:56:46;-8413.06;;;17.90;100.00
23131;BME280;11734;51.046;13.778;2022-08-16T03:59:26;-8078.34;;;17.84;100.00
23131;BME280;11734;51.046;13.778;2022-08-16T04:01:59;-8412.03;;;17.80;100.00
23131;BME280;11734;51.046;13.778;2022-08-16T04:04:29;-8411.72;;;17.77;100.00
23131;BME280;11734;51.046;13.778;2022-08-16T04:07:04;-8745.75;;;17.77;100.00
23131;BME280;11734;51.046;13.778;2022-08-16T04:09:37;-8746.03;;;17.80;100.00
23131;BME280;11734;51.046;13.778;2022-08-16T04:12:09;-8746.25;;;17.82;100.00
23131;BME280;11734;51.046;13.778;2022-08-16T04:14:58;-8746.25;;;17.82;100.00
23131;BME280;11734;51.046;13.778;2022-08-16T04:17:28;-8078.94;;;17.90;100.00
23131;BME280;11734;51.046;13.778;2022-08-16T04:19:56;-8079.88;;;17.99;100.00
23131;BME280;11734;51.046;13.778;2022-08-16T04:22:27;-7411.41;;;17.99;100.00
23131;BME280;11734;51.046;13.778;2022-08-16T04:25:00;-7077.75;;;18.06;100.00
23131;BME280;11734;51.046;13.778;2022-08-16T04:27:33;-7077.44;;;18.03;100.00
23131;BME280;11734;51.046;13.778;2022-08-16T04:30:03;-6742.09;;;17.90;100.00
23131;BME280;11734;51.046;13.778;2022-08-16T04:32:41;-7076.97;;;17.97;100.00
23131;BME280;11734;51.046;13.778;2022-08-16T04:35:13;-7076.44;;;17.91;100.00
23131;BME280;11734;51.046;13.778;2022-08-16T04:37:44;-7076.78;;;17.95;100.00
23131;BME280;11734;51.046;13.778;2022-08-16T04:40:20;-7077.50;;;18.03;100.00
23131;BME280;11734;51.046;13.778;2022-08-16T04:42:53;-6409.03;;;18.06;100.00
23131;BME280;11734;51.046;13.778;2022-08-16T04:45:26;-6074.84;;;18.10;100.00
23131;BME280;11734;51.046;13.778;2022-08-16T04:48:11;-5071.25;;;18.08;100.00
23131;BME280;11734;51.046;13.778;2022-08-16T04:50:56;-4402.25;;;18.12;100.00
23131;BME280;11734;51.046;13.778;2022-08-16T04:53:36;-3398.34;;;18.17;100.00
23131;BME280;11734;51.046;13.778;2022-08-16T04:56:08;-2393.97;;;18.24;100.00
23131;BME280;11734;51.046;13.778;2022-08-16T04:58:38;-1724.06;;;18.26;100.00
23131;BME280;11734;51.046;13.778;2022-08-16T05:01:15;-1724.06;;;18.24;100.00
23131;BME280;11734;51.046;13.778;2022-08-16T05:03:44;-1724.06;;;18.26;100.00
23131;BME280;11734;51.046;13.778;2022-08-16T05:06:30;-1724.09;;;18.28;100.00
23131;BME280;11734;51.046;13.778;2022-08-16T05:09:37;-1054.00;;;18.29;100.00
23131;BME280;11734;51.046;13.778;2022-08-16T05:12:13;-718.78;;;18.37;100.00
23131;BME280;11734;51.046;13.778;2022-08-16T05:14:58;287.13;;;18.48;100.00
23131;BME280;11734;51.046;13.778;2022-08-16T05:17:32;2300.47;;;18.62;100.00
23131;BME280;11734;51.046;13.778;2022-08-16T05:20:07;2972.38;;;18.71;100.00
23131;BME280;11734;51.046;13.778;2022-08-16T05:22:57;4315.91;;;18.75;100.00
23131;BME280;11734;51.046;13.778;2022-08-16T05:25:25;4653.03;;;18.88;100.00
23131;BME280;11734;51.046;13.778;2022-08-16T05:28:07;5661.44;;;18.91;100.00
23131;BME280;11734;51.046;13.778;2022-08-16T05:30:42;6333.81;;;18.92;100.00
23131;BME280;11734;51.046;13.778;2022-08-16T05:33:20;6670.13;;;18.93;100.00
23131;BME280;11734;51.046;13.778;2022-08-16T05:35:50;7006.47;;;18.94;100.00
23131;BME280;11734;51.046;13.778;2022-08-16T05:38:40;8016.38;;;19.01;100.00
23131;BME280;11734;51.046;13.778;2022-08-16T05:41:12;8354.69;;;19.13;100.00
23131;BME280;11734;51.046;13.778;2022-08-16T05:43:42;9365.78;;;19.21;100.00
23131;BME280;11734;51.046;13.778;2022-08-16T05:46:24;10377.16;;;19.28;100.00
23131;BME280;11734;51.046;13.778;2022-08-16T05:49:10;10715.34;;;19.36;100.00
23131;BME280;11734;51.046;13.778;2022-08-16T05:51:42;11727.50;;;19.43;100.00
23131;BME280;11734;51.046;13.778;2022-08-16T05:54:15;13078.91;;;19.56;100.00
23131;BME280;11734;51.046;13.778;2022-08-16T05:56:54;14434.41;;;19.82;100.00
23131;BME280;11734;51.046;13.778;2022-08-16T05:59:23;15792.09;;;20.09;100.00
23131;BME280;11734;51.046;13.778;2022-08-16T06:01:53;17825.94;;;20.31;100.00
23131;BME280;11734;51.046;13.778;2022-08-16T06:04:27;19518.75;;;20.37;100.00
23131;BME280;11734;51.046;13.778;2022-08-16T06:07:10;20196.78;;;20.41;100.00
23131;BME280;11734;51.046;13.778;2022-08-16T06:10:00;21552.78;;;20.47;100.00
23131;BME280;11734;51.046;13.778;2022-08-16T06:12:31;24596.16;;;20.35;100.00
23131;BME280;11734;51.046;13.778;2022-08-16T06:15:07;25276.19;;;20.41;100.00
23131;BME280;11734;51.046;13.778;2022-08-16T06:17:39;25957.13;;;20.48;100.00
23131;BME280;11734;51.046;13.778;2022-08-16T06:20:16;26973.78;;;20.47;100.00
23131;BME280;11734;51.046;13.778;2022-08-16T06:22:51;27318.47;;;20.59;100.00
23131;BME280;11734;51.046;13.778;2022-08-16T06:25:27;31396.03;;;20.68;100.00
23131;BME280;11734;51.046;13.778;2022-08-16T06:28:07;34949.19;;;20.88;100.00
23131;BME280;11734;51.046;13.778;2022-08-16T06:30:43;35050.78;;;21.21;100.00
23131;BME280;11734;51.046;13.778;2022-08-16T06:33:16;36932.81;;;21.54;100.00
23131;BME280;11734;51.046;13.778;2022-08-16T06:35:51;40230.94;;;21.80;100.00
23131;BME280;11734;51.046;13.778;2022-08-16T06:38:27;41948.59;;;21.93;100.00
23131;BME280;11734;51.046;13.778;2022-08-16T06:41:07;43467.47;;;22.09;100.00
23131;BME280;11734;51.046;13.778;2022-08-16T06:43:41;46235.25;;;22.04;100.00
23131;BME280;11734;51.046;13.778;2022-08-16T06:46:30;46864.16;;;22.05;100.00
23131;BME280;11734;51.046;13.778;2022-08-16T06:49:11;47649.13;;;22.12;100.00
23131;BME280;11734;51.046;13.778;2022-08-16T06:51:41;47826.41;;;22.16;100.00
23131;BME280;11734;51.046;13.778;2022-08-16T06:54:15;48167.59;;;22.22;100.00
23131;BME280;11734;51.046;13.778;2022-08-16T06:56:43;50320.97;;;22.09;96.23
23131;BME280;11734;51.046;13.778;2022-08-16T06:59:13;50678.06;;;22.18;96.79
23131;BME280;11734;51.046;13.778;2022-08-16T07:01:48;50967.56;;;22.15;96.84
23131;BME280;11734;51.046;13.778;2022-08-16T07:04:26;50880.28;;;22.23;97.93
23131;BME280;11734;51.046;13.778;2022-08-16T07:07:04;51319.69;;;22.30;96.12
23131;BME280;11734;51.046;13.778;2022-08-16T07:09:35;51204.56;;;22.42;96.25
23131;BME280;11734;51.046;13.778;2022-08-16T07:12:03;52111.78;;;22.51;93.39
23131;BME280;11734;51.046;13.778;2022-08-16T07:14:34;51561.19;;;22.62;96.21
23131;BME280;11734;51.046;13.778;2022-08-16T07:17:05;52041.22;;;22.69;94.30
23131;BME280;11734;51.046;13.778;2022-08-16T07:19:42;52383.00;;;22.77;92.81
23131;BME280;11734;51.046;13.778;2022-08-16T07:22:40;52590.03;;;22.84;92.61
23131;BME280;11734;51.046;13.778;2022-08-16T07:25:16;52490.97;;;22.81;92.98
23131;BME280;11734;51.046;13.778;2022-08-16T07:27:44;53019.56;;;22.91;91.57
23131;BME280;11734;51.046;13.778;2022-08-16T07:30:17;53064.97;;;23.07;91.10
23131;BME280;11734;51.046;13.778;2022-08-16T07:33:06;53206.94;;;23.16;90.24
23131;BME280;11734;51.046;13.778;2022-08-16T07:35:37;53193.38;;;23.28;90.25
23131;BME280;11734;51.046;13.778;2022-08-16T07:38:12;53223.69;;;23.35;90.15
23131;BME280;11734;51.046;13.778;2022-08-16T07:40:56;53768.19;;;23.53;87.07
23131;BME280;11734;51.046;13.778;2022-08-16T07:43:30;53395.06;;;23.71;88.25
23131;BME280;11734;51.046;13.778;2022-08-16T07:46:01;53709.03;;;23.80;86.62
23131;BME280;11734;51.046;13.778;2022-08-16T07:48:32;54190.94;;;23.91;84.63
23131;BME280;11734;51.046;13.778;2022-08-16T07:51:01;54733.81;;;23.88;81.24
23131;BME280;11734;51.046;13.778;2022-08-16T07:53:35;54676.22;;;24.02;79.79
23131;BME280;11734;51.046;13.778;2022-08-16T07:56:12;54592.22;;;24.19;79.45
23131;BME280;11734;51.046;13.778;2022-08-16T07:58:40;54107.31;;;24.42;79.34
23131;BME280;11734;51.046;13.778;2022-08-16T08:01:14;54817.72;;;24.40;76.87
23131;BME280;11734;51.046;13.778;2022-08-16T08:03:48;55470.41;;;24.57;73.61
23131;BME280;11734;51.046;13.778;2022-08-16T08:06:22;55171.00;;;24.83;73.80
23131;BME280;11734;51.046;13.778;2022-08-16T08:08:53;55055.06;;;25.24;71.86
23131;BME280;11734;51.046;13.778;2022-08-16T08:11:27;55406.72;;;25.44;69.74
23131;BME280;11734;51.046;13.778;2022-08-16T08:13:59;55446.31;;;25.73;69.36
23131;BME280;11734;51.046;13.778;2022-08-16T08:16:38;55331.84;;;26.01;68.87
23131;BME280;11734;51.046;13.778;2022-08-16T08:19:17;56265.84;;;26.03;66.82
23131;BME280;11734;51.046;13.778;2022-08-16T08:21:49;56858.56;;;26.25;63.74
23131;BME280;11734;51.046;13.778;2022-08-16T08:24:48;57058.34;;;26.40;64.41
23131;BME280;11734;51.046;13.778;2022-08-16T08:27:16;56936.41;;;26.71;63.78
23131;BME280;11734;51.046;13.778;2022-08-16T08:29:51;56850.03;;;27.06;63.45
23131;BME280;11734;51.046;13.778;2022-08-16T08:32:40;57345.53;;;27.13;61.80
23131;BME280;11734;51.046;13.778;2022-08-16T08:35:34;57620.97;;;27.56;60.30
23131;BME280;11734;51.046;13.778;2022-08-16T08:38:03;59065.47;;;27.71;57.83
23131;BME280;11734;51.046;13.778;2022-08-16T08:40:34;60118.88;;;27.97;56.12
23131;BME280;11734;51.046;13.778;2022-08-16T08:43:04;60700.25;;;28.32;56.87
23131;BME280;11734;51.046;13.778;2022-08-16T08:45:44;61573.44;;;28.76;53.68
23131;BME280;11734;51.046;13.778;2022-08-16T08:48:16;62832.84;;;29.51;49.47
23131;BME280;11734;51.046;13.778;2022-08-16T08:51:12;62944.84;;;30.02;49.13
23131;BME280;11734;51.046;13.778;2022-08-16T08:53:52;63390.81;;;30.92;46.93
23131;BME280;11734;51.046;13.778;2022-08-16T08:56:28;63790.06;;;31.41;45.32
23131;BME280;11734;51.046;13.778;2022-08-16T08:59:21;64492.09;;;31.56;44.15
23131;BME280;11734;51.046;13.778;2022-08-16T09:01:53;64788.38;;;31.86;43.18
23131;BME280;11734;51.046;13.778;2022-08-16T09:04:28;65494.06;;;31.98;41.17
23131;BME280;11734;51.046;13.778;2022-08-16T09:06:57;65060.53;;;32.76;41.60
23131;BME280;11734;51.046;13.778;2022-08-16T09:09:30;65713.13;;;33.25;38.13
23131;BME280;11734;51.046;13.778;2022-08-16T09:12:01;65898.03;;;33.54;37.74
23131;BME280;11734;51.046;13.778;2022-08-16T09:14:48;66491.47;;;32.88;38.33
23131;BME280;11734;51.046;13.778;2022-08-16T09:17:22;66671.31;;;32.90;38.21
23131;BME280;11734;51.046;13.778;2022-08-16T09:20:12;66461.00;;;33.59;37.49
23131;BME280;11734;51.046;13.778;2022-08-16T09:22:42;66530.28;;;33.98;36.49
23131;BME280;11734;51.046;13.778;2022-08-16T09:25:18;66680.66;;;34.41;34.79
23131;BME280;11734;51.046;13.778;2022-08-16T09:28:01;66842.78;;;34.59;34.50
23131;BME280;11734;51.046;13.778;2022-08-16T09:30:41;66933.75;;;34.75;34.70
23131;BME280;11734;51.046;13.778;2022-08-16T09:33:12;66825.16;;;34.83;35.01
23131;BME280;11734;51.046;13.778;2022-08-16T09:35:45;67130.06;;;35.07;33.32
23131;BME280;11734;51.046;13.778;2022-08-16T09:38:21;67146.53;;;35.32;33.53
23131;BME280;11734;51.046;13.778;2022-08-16T09:41:04;67135.53;;;35.47;34.14
23131;BME280;11734;51.046;13.778;2022-08-16T09:43:41;67341.34;;;35.37;33.17
23131;BME280;11734;51.046;13.778;2022-08-16T09:46:26;67290.31;;;35.48;34.17
23131;BME280;11734;51.046;13.778;2022-08-16T09:49:14;67221.13;;;36.06;32.61
23131;BME280;11734;51.046;13.778;2022-08-16T09:51:49;67225.97;;;36.58;31.32
23131;BME280;11734;51.046;13.778;2022-08-16T09:54:25;67497.59;;;36.50;30.97
23131;BME280;11734;51.046;13.778;2022-08-16T09:57:00;67683.94;;;36.37;31.28
23131;BME280;11734;51.046;13.778;2022-08-16T09:59:29;67643.38;;;36.65;30.63
23131;BME280;11734;51.046;13.778;2022-08-16T10:02:05;68264.78;;;35.45;31.19
23131;BME280;11734;51.046;13.778;2022-08-16T10:04:53;68039.69;;;35.90;32.12
23131;BME280;11734;51.046;13.778;2022-08-16T10:07:26;67973.91;;;36.61;30.12
23131;BME280;11734;51.046;13.778;2022-08-16T10:10:14;67826.28;;;37.22;29.17
23131;BME280;11734;51.046;13.778;2022-08-16T10:12:57;67746.06;;;37.69;29.27
23131;BME280;11734;51.046;13.778;2022-08-16T10:15:46;68094.41;;;37.20;29.23
23131;BME280;11734;51.046;13.778;2022-08-16T10:18:21;67769.84;;;37.96;29.75
23131;BME280;11734;51.046;13.778;2022-08-16T10:21:09;67995.25;;;37.98;28.45
23131;BME280;11734;51.046;13.778;2022-08-16T10:23:36;68282.84;;;38.42;26.21
23131;BME280;11734;51.046;13.778;2022-08-16T10:26:04;68673.00;;;37.81;27.04
23131;BME280;11734;51.046;13.778;2022-08-16T10:28:52;68842.94;;;36.80;28.82
23131;BME280;11734;51.046;13.778;2022-08-16T10:31:20;69129.16;;;35.82;29.64
23131;BME280;11734;51.046;13.778;2022-08-16T10:34:08;69568.75;;;33.55;33.09
23131;BME280;11734;51.046;13.778;2022-08-16T10:36:56;69632.28;;;32.44;34.42
23131;BME280;11734;51.046;13.778;2022-08-16T10:39:24;69705.34;;;32.16;34.94
23131;BME280;11734;51.046;13.778;2022-08-16T10:41:51;69549.81;;;32.58;35.50
23131;BME280;11734;51.046;13.778;2022-08-16T10:44:19;69452.28;;;32.54;37.47
23131;BME280;11734;51.046;13.778;2022-08-16T10:46:47;69407.03;;;32.96;36.86
23131;BME280;11734;51.046;13.778;2022-08-16T10:49:15;69313.34;;;34.23;32.95
23131;BME280;11734;51.046;13.778;2022-08-16T10:51:45;69356.50;;;34.49;30.97
23131;BME280;11734;51.046;13.778;2022-08-16T10:54:30;69428.28;;;34.47;31.11
23131;BME280;11734;51.046;13.778;2022-08-16T10:56:59;69355.56;;;34.85;31.46
23131;BME280;11734;51.046;13.778;2022-08-16T10:59:31;69462.97;;;34.51;31.25
23131;BME280;11734;51.046;13.778;2022-08-16T11:02:20;69541.97;;;33.16;34.58
23131;BME280;11734;51.046;13.778;2022-08-16T11:05:10;69604.00;;;32.96;34.45
23131;BME280;11734;51.046;13.778;2022-08-16T11:07:43;69664.44;;;33.13;32.87
23131;BME280;11734;51.046;13.778;2022-08-16T11:10:26;69589.56;;;32.91;34.54
23131;BME280;11734;51.046;13.778;2022-08-16T11:13:25;69645.13;;;32.26;36.41
23131;BME280;11734;51.046;13.778;2022-08-16T11:16:13;69678.38;;;31.78;35.92
23131;BME280;11734;51.046;13.778;2022-08-16T11:19:00;69543.41;;;32.74;35.35
23131;BME280;11734;51.046;13.778;2022-08-16T11:21:41;69472.22;;;33.64;33.75
23131;BME280;11734;51.046;13.778;2022-08-16T11:24:29;69319.41;;;34.55;32.89
23131;BME280;11734;51.046;13.778;2022-08-16T11:27:18;69125.16;;;35.22;32.95
23131;BME280;11734;51.046;13.778;2022-08-16T11:29:53;69018.16;;;36.23;31.00
23131;BME280;11734;51.046;13.778;2022-08-16T11:32:23;68819.44;;;36.89;30.16
23131;BME280;11734;51.046;13.778;2022-08-16T11:35:06;68925.13;;;37.40;27.37
23131;BME280;11734;51.046;13.778;2022-08-16T11:37:45;68821.25;;;37.80;27.29
23131;BME280;11734;51.046;13.778;2022-08-16T11:40:37;69196.59;;;36.94;26.81
23131;BME280;11734;51.046;13.778;2022-08-16T11:43:10;69159.06;;;36.90;27.98
23131;BME280;11734;51.046;13.778;2022-08-16T11:45:44;69103.84;;;37.27;27.41
23131;BME280;11734;51.046;13.778;2022-08-16T11:48:22;69178.47;;;37.37;26.41
23131;BME280;11734;51.046;13.778;2022-08-16T11:50:50;69038.88;;;37.50;27.03
23131;BME280;11734;51.046;13.778;2022-08-16T11:53:18;69261.34;;;36.86;27.02
23131;BME280;11734;51.046;13.778;2022-08-16T11:55:49;69624.44;;;35.41;28.85
23131;BME280;11734;51.046;13.778;2022-08-16T11:58:22;69617.13;;;35.08;29.89
23131;BME280;11734;51.046;13.778;2022-08-16T12:00:51;69727.78;;;34.74;29.70
23131;BME280;11734;51.046;13.778;2022-08-16T12:03:22;69701.19;;;34.68;30.35
23131;BME280;11734;51.046;13.778;2022-08-16T12:06:07;69710.97;;;34.40;30.29
23131;BME280;11734;51.046;13.778;2022-08-16T12:08:51;69815.91;;;33.82;31.11
23131;BME280;11734;51.046;13.778;2022-08-16T12:11:22;69779.06;;;33.67;32.15
23131;BME280;11734;51.046;13.778;2022-08-16T12:13:53;69847.38;;;32.60;34.44
23131;BME280;11734;51.046;13.778;2022-08-16T12:16:20;69878.91;;;32.22;33.89
23131;BME280;11734;51.046;13.778;2022-08-16T12:18:48;69907.31;;;32.55;33.19
23131;BME280;11734;51.046;13.778;2022-08-16T12:21:16;69844.03;;;32.69;34.49
23131;BME280;11734;51.046;13.778;2022-08-16T12:23:45;69894.66;;;32.75;33.24
23131;BME280;11734;51.046;13.778;2022-08-16T12:26:13;69876.41;;;32.71;33.83
23131;BME280;11734;51.046;13.778;2022-08-16T12:28:41;69895.44;;;32.47;33.77
23131;BME280;11734;51.046;13.778;2022-08-16T12:31:23;69894.34;;;32.36;34.07
23131;BME280;11734;51.046;13.778;2022-08-16T12:33:52;69968.66;;;31.93;34.20
23131;BME280;11734;51.046;13.778;2022-08-16T12:36:24;69997.97;;;31.59;34.31
23131;BME280;11734;51.046;13.778;2022-08-16T12:38:56;69958.09;;;31.79;34.84
23131;BME280;11734;51.046;13.778;2022-08-16T12:41:25;69973.19;;;31.75;35.04
23131;BME280;11734;51.046;13.778;2022-08-16T12:43:53;70005.03;;;31.39;35.12
23131;BME280;11734;51.046;13.778;2022-08-16T12:46:27;69947.66;;;31.58;35.78
23131;BME280;11734;51.046;13.778;2022-08-16T12:48:58;69936.16;;;31.67;34.82
23131;BME280;11734;51.046;13.778;2022-08-16T12:51:36;70022.84;;;31.45;34.87
23131;BME280;11734;51.046;13.778;2022-08-16T12:54:24;69948.00;;;31.44;35.48
23131;BME280;11734;51.046;13.778;2022-08-16T12:56:52;69944.00;;;31.40;36.09
23131;BME280;11734;51.046;13.778;2022-08-16T12:59:22;69967.38;;;31.49;35.60
23131;BME280;11734;51.046;13.778;2022-08-16T13:01:50;69923.63;;;31.68;35.78
23131;BME280;11734;51.046;13.778;2022-08-16T13:04:26;69938.50;;;31.81;35.49
23131;BME280;11734;51.046;13.778;2022-08-16T13:07:01;69959.09;;;31.37;35.84
23131;BME280;11734;51.046;13.778;2022-08-16T13:09:30;69940.06;;;31.58;35.76
23131;BME280;11734;51.046;13.778;2022-08-16T13:12:09;69899.81;;;31.61;36.02
23131;BME280;11734;51.046;13.778;2022-08-16T13:14:52;69909.41;;;31.67;35.99
23131;BME280;11734;51.046;13.778;2022-08-16T13:17:25;69922.78;;;31.62;36.58
23131;BME280;11734;51.046;13.778;2022-08-16T13:19:56;69912.97;;;31.73;36.08
23131;BME280;11734;51.046;13.778;2022-08-16T13:22:45;69904.81;;;31.95;35.41
23131;BME280;11734;51.046;13.778;2022-08-16T13:25:17;70036.84;;;31.81;33.79
23131;BME280;11734;51.046;13.778;2022-08-16T13:27:49;69959.63;;;31.56;35.09
23131;BME280;11734;51.046;13.778;2022-08-16T13:30:37;69952.41;;;31.64;35.39
23131;BME280;11734;51.046;13.778;2022-08-16T13:33:12;69898.16;;;31.41;36.96
23131;BME280;11734;51.046;13.778;2022-08-16T13:35:49;69874.22;;;31.63;37.61
23131;BME280;11734;51.046;13.778;2022-08-16T13:38:28;69911.59;;;31.57;36.29